createdAt,value
2019-05-19T00:01:33.896Z,29.62
2019-05-19T00:04:02.190Z,29.39
2019-05-19T00:06:30.559Z,29.99
2019-05-19T00:08:58.888Z,29.88
2019-05-19T00:11:27.179Z,29.42
2019-05-19T00:13:55.504Z,29.35
2019-05-19T00:16:23.870Z,28.74
2019-05-19T00:18:52.237Z,29.08
2019-05-19T00:21:20.569Z,29.29
2019-05-19T00:23:48.872Z,29.56
2019-05-19T00:26:17.185Z,28.99
2019-05-19T00:28:45.612Z,28.63
2019-05-19T00:31:13.862Z,29.13
2019-05-19T00:33:42.334Z,29.81
2019-05-19T00:36:10.915Z,29.91
2019-05-19T00:38:39.247Z,29.89
2019-05-19T00:41:07.612Z,29.38
2019-05-19T00:43:36.005Z,29.08
2019-05-19T00:46:04.657Z,28.41
2019-05-19T00:48:33.334Z,28.07
2019-05-19T00:51:01.701Z,28.96
2019-05-19T00:53:30.409Z,28.33
2019-05-19T00:55:59.741Z,28.96
2019-05-19T00:58:28.601Z,28.59
2019-05-19T01:00:56.901Z,28.56
2019-05-19T01:03:25.676Z,28.46
2019-05-19T01:05:53.997Z,27.98
2019-05-19T01:08:22.354Z,27.56
2019-05-19T01:10:50.836Z,28.34
2019-05-19T01:13:19.139Z,28.22
2019-05-19T01:15:47.468Z,28.83
2019-05-19T01:18:15.832Z,29.23
2019-05-19T01:20:44.304Z,28.87
2019-05-19T01:23:12.627Z,28.67
2019-05-19T01:25:40.987Z,28.77
2019-05-19T01:28:09.313Z,27.78
2019-05-19T01:30:37.601Z,28.75
2019-05-19T01:33:05.988Z,28.43
2019-05-19T01:35:34.355Z,28.24
2019-05-19T01:38:03.019Z,28.58
2019-05-19T01:40:31.411Z,28.43
2019-05-19T01:42:59.772Z,27.75
2019-05-19T01:45:28.158Z,27.84
2019-05-19T01:47:56.466Z,27.72
2019-05-19T01:50:24.778Z,27.98
2019-05-19T01:52:53.085Z,28.36
2019-05-19T01:55:21.581Z,28.51
2019-05-19T01:57:49.868Z,28.08
2019-05-19T02:00:18.937Z,27.60
2019-05-19T02:02:47.240Z,27.68
2019-05-19T02:05:15.651Z,27.36
2019-05-19T02:07:44.031Z,26.93
2019-05-19T02:10:12.425Z,27.91
2019-05-19T02:12:41.082Z,28.31
2019-05-19T02:15:11.238Z,27.85
2019-05-19T02:17:40.002Z,27.37
2019-05-19T02:20:09.648Z,27.52
2019-05-19T02:22:38.004Z,27.88
2019-05-19T02:25:06.710Z,27.79
2019-05-19T02:27:35.044Z,27.49
2019-05-19T02:30:05.369Z,27.79
2019-05-19T02:32:33.687Z,27.40
2019-05-19T02:35:01.999Z,27.69
2019-05-19T02:37:30.291Z,27.69
2019-05-19T02:39:58.679Z,28.47
2019-05-19T02:42:28.525Z,28.32
2019-05-19T02:44:58.944Z,27.46
2019-05-19T02:47:28.280Z,27.72
2019-05-19T02:49:57.675Z,27.77
2019-05-19T02:52:27.341Z,27.04
2019-05-19T02:54:56.512Z,27.55
2019-05-19T02:57:24.962Z,27.39
2019-05-19T02:59:53.651Z,27.39
2019-05-19T03:02:22.339Z,27.36
2019-05-19T03:04:50.732Z,26.99
2019-05-19T03:07:19.049Z,27.65
2019-05-19T03:09:47.372Z,27.63
2019-05-19T03:12:15.667Z,27.69
2019-05-19T03:14:44.037Z,27.22
2019-05-19T03:17:12.354Z,27.32
2019-05-19T03:19:40.776Z,27.84
2019-05-19T03:22:09.178Z,27.92
2019-05-19T03:24:37.466Z,27.75
2019-05-19T03:27:05.964Z,27.90
2019-05-19T03:29:35.901Z,27.71
2019-05-19T03:32:12.362Z,28.45
2019-05-19T03:34:38.929Z,27.92
2019-05-19T03:37:07.226Z,27.75
2019-05-19T03:39:35.542Z,27.94
2019-05-19T03:42:04.331Z,28.04
2019-05-19T03:44:32.736Z,28.01
2019-05-19T03:47:01.048Z,28.34
2019-05-19T03:49:29.675Z,28.13
2019-05-19T03:51:57.996Z,28.05
2019-05-19T03:54:26.362Z,27.81
2019-05-19T03:56:54.684Z,27.41
2019-05-19T03:59:22.981Z,27.00
2019-05-19T04:01:51.292Z,27.21
2019-05-19T04:04:19.584Z,26.74
2019-05-19T04:06:47.907Z,27.60
2019-05-19T04:09:17.426Z,27.10
2019-05-19T04:11:46.152Z,27.71
2019-05-19T04:14:14.927Z,28.02
2019-05-19T04:16:43.513Z,27.59
2019-05-19T04:19:11.828Z,28.20
2019-05-19T04:21:48.810Z,27.17
2019-05-19T04:24:10.170Z,27.32
2019-05-19T04:26:38.466Z,26.22
2019-05-19T04:29:06.867Z,26.55
2019-05-19T04:31:35.158Z,27.35
2019-05-19T04:34:04.058Z,27.61
2019-05-19T04:36:32.382Z,27.61
2019-05-19T04:39:00.681Z,27.12
2019-05-19T04:41:29.072Z,27.02
2019-05-19T04:43:58.212Z,27.67
2019-05-19T04:46:26.953Z,28.33
2019-05-19T04:48:55.238Z,28.47
2019-05-19T04:51:23.575Z,28.29
2019-05-19T04:53:51.911Z,26.86
2019-05-19T04:56:20.211Z,27.31
2019-05-19T04:58:48.540Z,27.89
2019-05-19T05:01:16.834Z,28.13
2019-05-19T05:03:45.257Z,28.25
2019-05-19T05:06:13.916Z,28.30
2019-05-19T05:08:42.329Z,27.94
2019-05-19T05:11:10.687Z,27.82
2019-05-19T05:13:39.368Z,28.17
2019-05-19T05:16:07.724Z,28.39
2019-05-19T05:18:36.437Z,28.29
2019-05-19T05:21:04.845Z,27.09
2019-05-19T05:23:33.213Z,28.37
2019-05-19T05:26:01.540Z,29.18
2019-05-19T05:28:29.849Z,28.79
2019-05-19T05:30:58.183Z,27.25
2019-05-19T05:33:26.482Z,28.30
2019-05-19T05:35:54.783Z,28.44
2019-05-19T05:38:23.120Z,28.13
2019-05-19T05:40:51.416Z,27.48
2019-05-19T05:43:20.048Z,27.60
2019-05-19T05:45:48.416Z,26.42
2019-05-19T05:48:16.730Z,28.58
2019-05-19T05:50:45.024Z,28.47
2019-05-19T05:53:14.715Z,28.37
2019-05-19T05:55:43.083Z,28.63
2019-05-19T05:58:11.389Z,29.47
2019-05-19T06:00:39.707Z,29.47
2019-05-19T06:03:08.240Z,29.92
2019-05-19T06:05:36.583Z,29.05
2019-05-19T06:08:05.019Z,28.77
2019-05-19T06:10:33.352Z,29.76
2019-05-19T06:13:01.716Z,30.55
2019-05-19T06:15:30.356Z,28.75
2019-05-19T06:17:58.842Z,28.87
2019-05-19T06:20:27.136Z,30.25
2019-05-19T06:22:57.112Z,30.80
2019-05-19T06:25:25.778Z,31.71
2019-05-19T06:27:54.204Z,31.02
2019-05-19T06:30:22.573Z,32.03
2019-05-19T06:32:52.522Z,30.36
2019-05-19T06:35:21.025Z,31.80
2019-05-19T06:37:49.335Z,30.79
2019-05-19T06:40:17.921Z,30.51
2019-05-19T06:42:46.268Z,30.93
2019-05-19T06:45:16.536Z,31.40
2019-05-19T06:47:45.133Z,31.18
2019-05-19T06:50:14.295Z,31.74
2019-05-19T06:52:42.604Z,30.84
2019-05-19T06:55:11.237Z,30.59
2019-05-19T06:57:39.670Z,30.42
2019-05-19T07:00:08.312Z,29.88
2019-05-19T07:02:36.789Z,31.09
2019-05-19T07:05:09.047Z,31.40
2019-05-19T07:07:37.512Z,29.96
2019-05-19T07:10:09.131Z,29.27
2019-05-19T07:12:37.507Z,29.80
2019-05-19T07:15:06.574Z,31.91
2019-05-19T07:17:34.887Z,31.55
2019-05-19T07:20:04.043Z,30.90
2019-05-19T07:22:36.934Z,30.08
2019-05-19T07:25:02.586Z,31.57
2019-05-19T07:27:30.883Z,31.69
2019-05-19T07:29:59.221Z,31.74
2019-05-19T07:32:27.520Z,31.56
2019-05-19T07:34:56.179Z,29.85
2019-05-19T07:37:25.438Z,31.35
2019-05-19T07:39:54.068Z,30.71
2019-05-19T07:42:22.798Z,31.71
2019-05-19T07:44:51.101Z,31.33
2019-05-19T07:47:19.527Z,32.05
2019-05-19T07:49:47.851Z,32.86
2019-05-19T07:52:16.247Z,30.76
2019-05-19T07:54:44.551Z,31.21
2019-05-19T07:57:12.900Z,32.02
2019-05-19T07:59:41.260Z,31.38
2019-05-19T08:02:09.574Z,31.97
2019-05-19T08:04:37.974Z,31.62
2019-05-19T08:07:06.373Z,31.72
2019-05-19T08:09:34.707Z,32.70
2019-05-19T08:12:03.106Z,32.75
2019-05-19T08:14:31.530Z,32.62
2019-05-19T08:17:00.195Z,31.13
2019-05-19T08:19:28.587Z,32.13
2019-05-19T08:21:56.961Z,32.53
2019-05-19T08:24:25.463Z,33.14
2019-05-19T08:26:53.788Z,33.24
2019-05-19T08:29:22.100Z,32.84
2019-05-19T08:31:50.505Z,33.30
2019-05-19T08:34:18.799Z,31.55
2019-05-19T08:36:47.179Z,32.87
2019-05-19T08:39:15.471Z,33.25
2019-05-19T08:41:43.789Z,33.73
2019-05-19T08:44:12.190Z,34.08
2019-05-19T08:46:40.521Z,34.16
2019-05-19T08:49:08.883Z,34.92
2019-05-19T08:51:37.195Z,34.52
2019-05-19T08:54:14.298Z,34.95
2019-05-19T08:56:35.629Z,33.63
2019-05-19T08:59:04.334Z,34.77
2019-05-19T09:01:32.700Z,34.78
2019-05-19T09:04:01.400Z,35.79
2019-05-19T09:06:29.696Z,35.29
2019-05-19T09:08:57.994Z,36.18
2019-05-19T09:11:26.322Z,37.21
2019-05-19T09:13:54.618Z,37.50
2019-05-19T09:16:23.113Z,38.25
2019-05-19T09:18:51.413Z,36.49
2019-05-19T09:21:19.775Z,36.59
2019-05-19T09:23:48.100Z,36.77
2019-05-19T09:26:16.402Z,35.31
2019-05-19T09:28:44.808Z,35.50
2019-05-19T09:31:13.110Z,37.14
2019-05-19T09:33:41.428Z,37.70
2019-05-19T09:36:09.733Z,37.62
2019-05-19T09:38:38.148Z,35.49
2019-05-19T09:41:06.524Z,35.67
2019-05-19T09:43:34.919Z,37.23
2019-05-19T09:46:03.285Z,36.37
2019-05-19T09:48:31.539Z,37.92
2019-05-19T09:51:00.255Z,36.37
2019-05-19T09:53:28.548Z,35.67
2019-05-19T09:55:56.937Z,36.44
2019-05-19T09:58:25.303Z,38.07
2019-05-19T10:00:53.686Z,34.85
2019-05-19T10:03:22.003Z,34.41
2019-05-19T10:05:50.293Z,36.13
2019-05-19T10:08:24.192Z,36.92
2019-05-19T10:11:13.110Z,37.70
2019-05-19T10:13:41.408Z,38.09
2019-05-19T10:16:10.087Z,37.17
2019-05-19T10:18:38.387Z,38.12
2019-05-19T10:21:06.692Z,37.76
2019-05-19T10:23:35.529Z,37.72
2019-05-19T10:26:03.826Z,38.18
2019-05-19T10:28:32.342Z,36.54
2019-05-19T10:31:00.697Z,37.51
2019-05-19T10:33:29.079Z,37.89
2019-05-19T10:35:57.387Z,37.33
2019-05-19T10:38:25.817Z,37.86
2019-05-19T10:40:54.501Z,36.27
2019-05-19T10:43:22.851Z,36.52
2019-05-19T10:45:52.924Z,37.95
2019-05-19T10:48:21.232Z,38.52
2019-05-19T10:50:49.769Z,37.53
2019-05-19T10:53:18.724Z,35.29
2019-05-19T10:55:47.060Z,36.95
2019-05-19T10:58:15.402Z,38.20
2019-05-19T11:00:43.721Z,38.44
2019-05-19T11:03:12.021Z,38.86
2019-05-19T11:05:40.338Z,38.05
2019-05-19T11:08:08.656Z,37.74
2019-05-19T11:10:37.021Z,36.41
2019-05-19T11:13:05.339Z,37.26
2019-05-19T11:15:33.716Z,39.18
2019-05-19T11:18:02.038Z,37.99
2019-05-19T11:20:30.398Z,37.02
2019-05-19T11:22:58.736Z,38.30
2019-05-19T11:25:33.834Z,39.67
2019-05-19T11:27:57.435Z,38.28
2019-05-19T11:30:25.789Z,37.59
2019-05-19T11:32:54.119Z,40.51
2019-05-19T11:35:22.610Z,38.21
2019-05-19T11:37:50.977Z,39.94
2019-05-19T11:40:19.339Z,39.97
2019-05-19T11:42:48.039Z,38.80
2019-05-19T11:45:16.408Z,36.07
2019-05-19T11:47:44.730Z,36.61
2019-05-19T11:50:13.098Z,37.69
2019-05-19T11:52:41.777Z,37.80
2019-05-19T11:55:10.154Z,38.41
2019-05-19T11:57:38.476Z,37.80
2019-05-19T12:00:07.313Z,38.43
2019-05-19T12:02:35.643Z,40.34
2019-05-19T12:05:05.733Z,41.30
2019-05-19T12:07:34.025Z,42.34
2019-05-19T12:10:02.705Z,42.13
2019-05-19T12:12:30.987Z,41.90
2019-05-19T12:14:59.312Z,40.58
2019-05-19T12:17:27.653Z,40.58
2019-05-19T12:19:55.984Z,41.74
2019-05-19T12:22:24.289Z,41.11
2019-05-19T12:24:53.080Z,39.47
2019-05-19T12:27:21.369Z,41.35
2019-05-19T12:29:49.686Z,38.64
2019-05-19T12:32:18.297Z,41.77
2019-05-19T12:34:46.574Z,38.83
2019-05-19T12:37:15.202Z,39.89
2019-05-19T12:39:43.793Z,40.88
2019-05-19T12:42:12.199Z,41.44
2019-05-19T12:44:40.576Z,44.51
2019-05-19T12:47:08.862Z,39.83
2019-05-19T12:49:37.214Z,43.77
2019-05-19T12:52:05.602Z,43.25
2019-05-19T12:54:34.027Z,38.16
2019-05-19T12:57:02.394Z,37.86
2019-05-19T12:59:30.685Z,39.34
2019-05-19T13:01:59.170Z,40.99
2019-05-19T13:04:27.482Z,41.00
2019-05-19T13:06:55.918Z,42.70
2019-05-19T13:09:24.215Z,42.29
2019-05-19T13:11:52.610Z,42.55
2019-05-19T13:14:21.333Z,39.96
2019-05-19T13:16:49.729Z,40.52
2019-05-19T13:19:18.084Z,40.87
2019-05-19T13:21:46.376Z,40.16
2019-05-19T13:24:14.695Z,39.96
2019-05-19T13:26:55.638Z,40.67
2019-05-19T13:29:13.033Z,42.43
2019-05-19T13:31:41.328Z,42.30
2019-05-19T13:34:09.633Z,44.26
2019-05-19T13:36:40.270Z,45.33
2019-05-19T13:39:08.346Z,45.63
2019-05-19T13:41:36.817Z,42.29
2019-05-19T13:44:05.182Z,43.29
2019-05-19T13:46:33.506Z,39.11
2019-05-19T13:49:01.799Z,40.51
2019-05-19T13:51:30.208Z,41.49
2019-05-19T13:53:58.581Z,42.62
2019-05-19T13:56:26.935Z,42.94
2019-05-19T13:58:55.322Z,44.56
2019-05-19T14:01:28.513Z,43.94
2019-05-19T14:03:53.834Z,46.70
2019-05-19T14:06:22.090Z,42.16
2019-05-19T14:08:50.403Z,43.14
2019-05-19T14:11:18.705Z,41.13
2019-05-19T14:13:47.074Z,42.11
2019-05-19T14:16:15.376Z,42.07
2019-05-19T14:18:43.896Z,41.71
2019-05-19T14:21:12.211Z,43.25
2019-05-19T14:23:41.328Z,42.86
2019-05-19T14:26:09.667Z,42.00
2019-05-19T14:28:37.979Z,43.22
2019-05-19T14:31:06.460Z,43.87
2019-05-19T14:33:34.762Z,41.99
2019-05-19T14:36:03.079Z,44.21
2019-05-19T14:38:31.376Z,41.87
2019-05-19T14:40:59.714Z,43.07
2019-05-19T14:43:32.924Z,42.50
2019-05-19T14:46:01.305Z,41.58
2019-05-19T14:48:29.629Z,42.27
2019-05-19T14:50:57.944Z,42.26
2019-05-19T14:53:26.363Z,42.36
2019-05-19T14:55:54.667Z,43.22
2019-05-19T14:58:23.059Z,40.61
2019-05-19T15:00:51.361Z,41.96
2019-05-19T15:03:19.656Z,41.92
2019-05-19T15:05:48.352Z,41.13
2019-05-19T15:08:16.716Z,40.07
2019-05-19T15:10:45.076Z,41.01
2019-05-19T15:13:13.374Z,39.62
2019-05-19T15:15:41.691Z,39.32
2019-05-19T15:18:10.057Z,37.42
2019-05-19T15:20:38.548Z,39.70
2019-05-19T15:23:06.919Z,38.87
2019-05-19T15:25:35.245Z,38.84
2019-05-19T15:28:05.438Z,38.22
2019-05-19T15:30:33.586Z,38.97
2019-05-19T15:33:02.165Z,39.20
2019-05-19T15:35:31.033Z,40.26
2019-05-19T15:37:59.449Z,39.27
2019-05-19T15:40:27.764Z,39.51
2019-05-19T15:42:56.080Z,39.62
2019-05-19T15:45:24.447Z,39.82
2019-05-19T15:47:52.745Z,39.38
2019-05-19T15:50:21.249Z,39.01
2019-05-19T15:52:49.549Z,40.22
2019-05-19T15:55:18.026Z,39.87
2019-05-19T15:57:46.321Z,39.32
2019-05-19T16:00:15.034Z,39.82
2019-05-19T16:02:43.309Z,40.33
2019-05-19T16:05:12.872Z,39.78
2019-05-19T16:07:41.181Z,41.37
2019-05-19T16:10:10.051Z,40.67
2019-05-19T16:12:38.715Z,39.65
2019-05-19T16:15:08.598Z,38.95
2019-05-19T16:17:36.986Z,38.39
2019-05-19T16:20:09.049Z,36.84
2019-05-19T16:22:37.536Z,39.42
2019-05-19T16:25:07.931Z,38.53
2019-05-19T16:27:36.270Z,39.33
2019-05-19T16:30:09.009Z,39.26
2019-05-19T16:32:37.694Z,38.74
2019-05-19T16:35:06.952Z,39.78
2019-05-19T16:37:35.337Z,38.72
2019-05-19T16:40:04.709Z,38.88
2019-05-19T16:42:33.009Z,38.20
2019-05-19T16:45:01.336Z,38.45
2019-05-19T16:47:29.612Z,38.08
2019-05-19T16:49:57.925Z,39.17
2019-05-19T16:52:26.590Z,38.28
2019-05-19T16:55:12.823Z,37.32
2019-05-19T16:57:41.120Z,37.87
2019-05-19T17:00:09.511Z,36.51
2019-05-19T17:02:37.819Z,37.48
2019-05-19T17:05:07.263Z,36.89
2019-05-19T17:07:35.568Z,35.96
2019-05-19T17:10:05.224Z,35.22
2019-05-19T17:12:33.578Z,37.14
2019-05-19T17:15:02.631Z,35.68
2019-05-19T17:17:31.114Z,35.66
2019-05-19T17:19:59.436Z,35.34
2019-05-19T17:22:27.760Z,34.54
2019-05-19T17:24:56.050Z,35.27
2019-05-19T17:27:24.712Z,35.44
2019-05-19T17:29:53.017Z,35.46
2019-05-19T17:32:21.374Z,34.47
2019-05-19T17:34:49.759Z,35.02
2019-05-19T17:37:18.060Z,35.23
2019-05-19T17:39:46.382Z,34.88
2019-05-19T17:42:14.683Z,34.89
2019-05-19T17:44:43.201Z,33.58
2019-05-19T17:47:11.576Z,34.85
2019-05-19T17:49:40.017Z,34.21
2019-05-19T17:52:08.540Z,34.27
2019-05-19T17:54:36.872Z,34.88
2019-05-19T17:57:05.201Z,32.39
2019-05-19T17:59:33.856Z,33.27
2019-05-19T18:02:02.172Z,33.97
2019-05-19T18:04:30.466Z,33.86
2019-05-19T18:06:58.792Z,33.78
2019-05-19T18:09:27.512Z,34.48
2019-05-19T18:11:55.836Z,33.95
2019-05-19T18:14:24.479Z,33.88
2019-05-19T18:16:52.814Z,33.63
2019-05-19T18:19:21.110Z,32.66
2019-05-19T18:21:49.423Z,33.09
2019-05-19T18:24:18.722Z,33.61
2019-05-19T18:26:47.058Z,33.02
2019-05-19T18:29:15.359Z,33.39
2019-05-19T18:31:43.664Z,33.10
2019-05-19T18:34:11.984Z,33.42
2019-05-19T18:36:40.316Z,33.76
2019-05-19T18:39:08.777Z,33.34
2019-05-19T18:41:37.076Z,33.13
2019-05-19T18:44:05.478Z,33.50
2019-05-19T18:46:34.159Z,32.62
2019-05-19T18:49:02.494Z,33.28
2019-05-19T18:51:30.870Z,33.30
2019-05-19T18:53:59.275Z,32.58
2019-05-19T18:56:27.996Z,32.16
2019-05-19T18:58:56.314Z,33.17
2019-05-19T19:01:24.638Z,33.12
2019-05-19T19:03:53.285Z,32.33
2019-05-19T19:06:22.033Z,32.46
2019-05-19T19:08:50.340Z,32.48
2019-05-19T19:11:18.755Z,32.16
2019-05-19T19:13:47.053Z,32.17
2019-05-19T19:16:15.661Z,31.99
2019-05-19T19:18:44.050Z,31.75
2019-05-19T19:21:12.732Z,31.74
2019-05-19T19:23:41.135Z,31.44
2019-05-19T19:26:09.507Z,30.90
2019-05-19T19:28:37.985Z,31.45
2019-05-19T19:31:06.354Z,31.23
2019-05-19T19:33:34.657Z,31.80
2019-05-19T19:36:03.038Z,32.00
2019-05-19T19:38:31.354Z,32.45
2019-05-19T19:40:59.733Z,32.25
2019-05-19T19:43:28.038Z,30.82
2019-05-19T19:45:56.378Z,31.44
2019-05-19T19:48:24.680Z,31.21
2019-05-19T19:50:53.088Z,31.02
2019-05-19T19:53:21.392Z,30.98
2019-05-19T19:55:49.769Z,31.99
2019-05-19T19:58:18.213Z,32.33
2019-05-19T20:00:46.738Z,31.82
2019-05-19T20:03:15.430Z,32.06
2019-05-19T20:05:44.695Z,32.26
2019-05-19T20:08:13.242Z,30.90
2019-05-19T20:10:41.565Z,31.71
2019-05-19T20:13:10.051Z,30.89
2019-05-19T20:15:38.404Z,32.26
2019-05-19T20:18:06.813Z,30.66
2019-05-19T20:20:35.275Z,30.26
2019-05-19T20:23:03.738Z,31.40
2019-05-19T20:25:32.346Z,32.19
2019-05-19T20:28:00.640Z,32.25
2019-05-19T20:30:35.638Z,31.86
2019-05-19T20:32:59.054Z,32.25
2019-05-19T20:35:27.456Z,31.76
2019-05-19T20:37:55.755Z,31.14
2019-05-19T20:40:24.136Z,30.81
2019-05-19T20:42:52.701Z,31.49
2019-05-19T20:45:21.399Z,31.70
2019-05-19T20:47:49.787Z,30.37
2019-05-19T20:50:18.189Z,31.34
2019-05-19T20:52:46.518Z,30.51
2019-05-19T20:55:14.894Z,30.77
2019-05-19T20:57:43.216Z,31.21
2019-05-19T21:00:11.735Z,29.74
2019-05-19T21:02:40.133Z,30.36
2019-05-19T21:05:08.506Z,31.08
2019-05-19T21:07:37.110Z,32.26
2019-05-19T21:10:08.848Z,31.04
2019-05-19T21:12:37.168Z,30.39
2019-05-19T21:15:09.152Z,30.66
2019-05-19T21:17:37.442Z,29.89
2019-05-19T21:20:09.649Z,31.31
2019-05-19T21:22:37.946Z,30.51
2019-05-19T21:25:07.551Z,31.64
2019-05-19T21:27:35.829Z,30.49
2019-05-19T21:30:06.188Z,30.16
2019-05-19T21:32:34.498Z,30.18
2019-05-19T21:35:02.987Z,30.57
2019-05-19T21:37:31.333Z,30.50
2019-05-19T21:39:59.700Z,30.90
2019-05-19T21:42:27.962Z,31.30
2019-05-19T21:44:56.336Z,31.34
2019-05-19T21:47:24.797Z,30.19
2019-05-19T21:49:53.155Z,29.54
2019-05-19T21:52:21.655Z,30.23
2019-05-19T21:54:49.973Z,29.94
2019-05-19T21:57:19.940Z,28.93
2019-05-19T21:59:48.238Z,29.68
2019-05-19T22:02:17.204Z,29.49
2019-05-19T22:04:45.517Z,28.54
2019-05-19T22:07:27.479Z,29.90
2019-05-19T22:09:55.798Z,28.27
2019-05-19T22:12:24.100Z,29.17
2019-05-19T22:14:52.421Z,28.77
2019-05-19T22:17:20.826Z,29.54
2019-05-19T22:19:49.147Z,28.58
2019-05-19T22:22:17.577Z,29.60
2019-05-19T22:24:45.901Z,30.26
2019-05-19T22:27:14.203Z,29.14
2019-05-19T22:29:42.534Z,30.16
2019-05-19T22:32:10.826Z,29.04
2019-05-19T22:34:39.131Z,29.60
2019-05-19T22:37:07.769Z,29.82
2019-05-19T22:39:36.132Z,29.33
2019-05-19T22:42:05.039Z,29.20
2019-05-19T22:44:33.828Z,29.37
2019-05-19T22:47:02.207Z,28.71
2019-05-19T22:49:30.795Z,28.49
2019-05-19T22:51:59.099Z,29.11
2019-05-19T22:54:27.424Z,28.77
2019-05-19T22:56:55.728Z,28.85
2019-05-19T22:59:24.050Z,29.20
2019-05-19T23:01:52.421Z,29.64
2019-05-19T23:04:21.192Z,27.91
2019-05-19T23:06:49.488Z,29.03
2019-05-19T23:09:17.822Z,29.16
2019-05-19T23:11:46.333Z,28.40
2019-05-19T23:14:14.696Z,27.67
2019-05-19T23:16:43.093Z,30.99
2019-05-19T23:19:11.666Z,29.72
2019-05-19T23:21:39.982Z,30.16
2019-05-19T23:24:08.358Z,30.61
2019-05-19T23:26:36.686Z,29.54
2019-05-19T23:29:05.059Z,29.98
2019-05-19T23:31:33.694Z,29.95
2019-05-19T23:34:01.991Z,30.26
2019-05-19T23:36:30.486Z,30.33
2019-05-19T23:38:58.827Z,30.91
2019-05-19T23:41:27.112Z,30.06
2019-05-19T23:43:55.436Z,30.56
2019-05-19T23:46:23.735Z,30.90
2019-05-19T23:48:52.085Z,30.43
2019-05-19T23:51:20.400Z,31.03
2019-05-19T23:53:48.728Z,29.91
2019-05-19T23:56:17.095Z,29.31
2019-05-19T23:58:45.423Z,29.80
